sensor_id;sensor_type;location;lat;lon;timestamp;P1;durP1;ratioP1;P2;durP2;ratioP2
17606;SDS011;69222;52.242;20.980;2023-08-17T00:01:21;11.10;;;7.65;;
17606;SDS011;69222;52.242;20.980;2023-08-17T00:03:50;7.55;;;6.85;;
17606;SDS011;69222;52.242;20.980;2023-08-17T00:06:18;10.55;;;7.50;;
17606;SDS011;69222;52.242;20.980;2023-08-17T00:08:46;10.13;;;7.30;;
17606;SDS011;69222;52.242;20.980;2023-08-17T00:11:14;7.72;;;7.03;;
17606;SDS011;69222;52.242;20.980;2023-08-17T00:13:42;8.90;;;7.05;;
17606;SDS011;69222;52.242;20.980;2023-08-17T00:16:10;9.02;;;6.85;;
17606;SDS011;69222;52.242;20.980;2023-08-17T00:18:39;13.85;;;7.38;;
17606;SDS011;69222;52.242;20.980;2023-08-17T00:21:08;8.10;;;7.25;;
17606;SDS011;69222;52.242;20.980;2023-08-17T00:23:36;8.82;;;7.38;;
17606;SDS011;69222;52.242;20.980;2023-08-17T00:26:04;9.63;;;7.70;;
17606;SDS011;69222;52.242;20.980;2023-08-17T00:28:32;8.60;;;7.43;;
17606;SDS011;69222;52.242;20.980;2023-08-17T00:31:00;8.60;;;7.70;;
17606;SDS011;69222;52.242;20.980;2023-08-17T00:33:29;10.18;;;7.88;;
17606;SDS011;69222;52.242;20.980;2023-08-17T00:35:57;9.43;;;7.30;;
17606;SDS011;69222;52.242;20.980;2023-08-17T00:38:26;9.13;;;7.32;;
17606;SDS011;69222;52.242;20.980;2023-08-17T00:40:54;9.52;;;7.60;;
17606;SDS011;69222;52.242;20.980;2023-08-17T00:43:22;8.68;;;7.70;;
17606;SDS011;69222;52.242;20.980;2023-08-17T00:45:50;9.60;;;8.15;;
17606;SDS011;69222;52.242;20.980;2023-08-17T00:48:19;10.73;;;8.73;;
17606;SDS011;69222;52.242;20.980;2023-08-17T00:50:47;13.60;;;8.32;;
17606;SDS011;69222;52.242;20.980;2023-08-17T00:53:17;8.88;;;7.97;;
17606;SDS011;69222;52.242;20.980;2023-08-17T00:55:48;11.90;;;7.97;;
17606;SDS011;69222;52.242;20.980;2023-08-17T00:58:16;9.65;;;8.27;;
17606;SDS011;69222;52.242;20.980;2023-08-17T01:00:44;9.05;;;7.88;;
17606;SDS011;69222;52.242;20.980;2023-08-17T01:03:12;12.52;;;8.88;;
17606;SDS011;69222;52.242;20.980;2023-08-17T01:05:42;10.90;;;9.02;;
17606;SDS011;69222;52.242;20.980;2023-08-17T01:08:10;9.25;;;7.95;;
17606;SDS011;69222;52.242;20.980;2023-08-17T01:10:40;10.98;;;8.80;;
17606;SDS011;69222;52.242;20.980;2023-08-17T01:13:18;8.85;;;7.93;;
17606;SDS011;69222;52.242;20.980;2023-08-17T01:15:54;13.15;;;8.48;;
17606;SDS011;69222;52.242;20.980;2023-08-17T01:18:26;9.05;;;8.25;;
17606;SDS011;69222;52.242;20.980;2023-08-17T01:20:58;10.02;;;7.93;;
17606;SDS011;69222;52.242;20.980;2023-08-17T01:23:28;9.30;;;8.13;;
17606;SDS011;69222;52.242;20.980;2023-08-17T01:25:57;12.40;;;8.95;;
17606;SDS011;69222;52.242;20.980;2023-08-17T01:28:25;9.45;;;8.55;;
17606;SDS011;69222;52.242;20.980;2023-08-17T01:30:55;9.02;;;8.15;;
17606;SDS011;69222;52.242;20.980;2023-08-17T01:33:27;13.07;;;8.35;;
17606;SDS011;69222;52.242;20.980;2023-08-17T01:36:01;8.75;;;7.53;;
17606;SDS011;69222;52.242;20.980;2023-08-17T01:38:35;10.95;;;7.80;;
17606;SDS011;69222;52.242;20.980;2023-08-17T01:41:06;11.10;;;8.35;;
17606;SDS011;69222;52.242;20.980;2023-08-17T01:43:40;8.68;;;7.70;;
17606;SDS011;69222;52.242;20.980;2023-08-17T01:46:13;8.57;;;7.75;;
17606;SDS011;69222;52.242;20.980;2023-08-17T01:48:41;9.48;;;8.10;;
17606;SDS011;69222;52.242;20.980;2023-08-17T01:51:10;10.27;;;9.32;;
17606;SDS011;69222;52.242;20.980;2023-08-17T01:53:40;12.98;;;8.18;;
17606;SDS011;69222;52.242;20.980;2023-08-17T01:56:08;11.00;;;8.82;;
17606;SDS011;69222;52.242;20.980;2023-08-17T01:58:36;13.55;;;8.52;;
17606;SDS011;69222;52.242;20.980;2023-08-17T02:01:04;8.82;;;7.95;;
17606;SDS011;69222;52.242;20.980;2023-08-17T02:03:32;8.73;;;7.93;;
17606;SDS011;69222;52.242;20.980;2023-08-17T02:06:01;11.85;;;8.07;;
17606;SDS011;69222;52.242;20.980;2023-08-17T02:08:29;9.82;;;8.40;;
17606;SDS011;69222;52.242;20.980;2023-08-17T02:10:58;10.02;;;9.02;;
17606;SDS011;69222;52.242;20.980;2023-08-17T02:13:36;10.45;;;8.88;;
17606;SDS011;69222;52.242;20.980;2023-08-17T02:16:04;14.73;;;9.52;;
17606;SDS011;69222;52.242;20.980;2023-08-17T02:18:32;9.23;;;8.32;;
17606;SDS011;69222;52.242;20.980;2023-08-17T02:21:01;11.38;;;8.25;;
17606;SDS011;69222;52.242;20.980;2023-08-17T02:23:29;17.35;;;8.63;;
17606;SDS011;69222;52.242;20.980;2023-08-17T02:25:59;11.35;;;9.18;;
17606;SDS011;69222;52.242;20.980;2023-08-17T02:28:27;11.25;;;8.70;;
17606;SDS011;69222;52.242;20.980;2023-08-17T02:30:55;12.52;;;8.88;;
17606;SDS011;69222;52.242;20.980;2023-08-17T02:33:23;10.43;;;8.80;;
17606;SDS011;69222;52.242;20.980;2023-08-17T02:35:52;11.32;;;8.95;;
17606;SDS011;69222;52.242;20.980;2023-08-17T02:38:20;11.50;;;9.05;;
17606;SDS011;69222;52.242;20.980;2023-08-17T02:40:48;12.40;;;8.82;;
17606;SDS011;69222;52.242;20.980;2023-08-17T02:43:18;12.95;;;8.95;;
17606;SDS011;69222;52.242;20.980;2023-08-17T02:45:46;9.18;;;8.35;;
17606;SDS011;69222;52.242;20.980;2023-08-17T02:48:14;10.00;;;9.00;;
17606;SDS011;69222;52.242;20.980;2023-08-17T02:50:42;10.32;;;9.30;;
17606;SDS011;69222;52.242;20.980;2023-08-17T02:53:10;12.15;;;9.65;;
17606;SDS011;69222;52.242;20.980;2023-08-17T02:55:38;14.10;;;9.50;;
17606;SDS011;69222;52.242;20.980;2023-08-17T02:58:06;11.30;;;9.82;;
17606;SDS011;69222;52.242;20.980;2023-08-17T03:00:36;10.90;;;9.77;;
17606;SDS011;69222;52.242;20.980;2023-08-17T03:03:04;11.88;;;9.30;;
17606;SDS011;69222;52.242;20.980;2023-08-17T03:05:33;14.88;;;9.60;;
17606;SDS011;69222;52.242;20.980;2023-08-17T03:08:01;14.60;;;10.13;;
17606;SDS011;69222;52.242;20.980;2023-08-17T03:10:30;11.07;;;10.05;;
17606;SDS011;69222;52.242;20.980;2023-08-17T03:12:58;11.50;;;9.93;;
17606;SDS011;69222;52.242;20.980;2023-08-17T03:15:26;12.45;;;10.48;;
17606;SDS011;69222;52.242;20.980;2023-08-17T03:17:55;15.20;;;11.05;;
17606;SDS011;69222;52.242;20.980;2023-08-17T03:20:23;15.75;;;11.23;;
17606;SDS011;69222;52.242;20.980;2023-08-17T03:22:51;13.43;;;9.35;;
17606;SDS011;69222;52.242;20.980;2023-08-17T03:25:19;11.55;;;10.10;;
17606;SDS011;69222;52.242;20.980;2023-08-17T03:27:47;12.57;;;9.50;;
17606;SDS011;69222;52.242;20.980;2023-08-17T03:30:15;11.45;;;9.57;;
17606;SDS011;69222;52.242;20.980;2023-08-17T03:32:43;11.02;;;9.88;;
17606;SDS011;69222;52.242;20.980;2023-08-17T03:35:12;14.60;;;10.00;;
17606;SDS011;69222;52.242;20.980;2023-08-17T03:37:40;14.50;;;9.90;;
17606;SDS011;69222;52.242;20.980;2023-08-17T03:40:08;11.82;;;9.38;;
17606;SDS011;69222;52.242;20.980;2023-08-17T03:42:36;12.70;;;10.00;;
17606;SDS011;69222;52.242;20.980;2023-08-17T03:45:05;11.95;;;9.63;;
17606;SDS011;69222;52.242;20.980;2023-08-17T03:47:33;15.25;;;10.07;;
17606;SDS011;69222;52.242;20.980;2023-08-17T03:50:01;18.38;;;9.40;;
17606;SDS011;69222;52.242;20.980;2023-08-17T03:52:31;10.73;;;9.50;;
17606;SDS011;69222;52.242;20.980;2023-08-17T03:54:59;9.95;;;8.57;;
17606;SDS011;69222;52.242;20.980;2023-08-17T03:57:27;10.55;;;9.45;;
17606;SDS011;69222;52.242;20.980;2023-08-17T03:59:56;12.00;;;8.88;;
17606;SDS011;69222;52.242;20.980;2023-08-17T04:02:24;10.30;;;9.23;;
17606;SDS011;69222;52.242;20.980;2023-08-17T04:04:52;9.75;;;8.75;;
17606;SDS011;69222;52.242;20.980;2023-08-17T04:07:20;10.70;;;8.55;;
17606;SDS011;69222;52.242;20.980;2023-08-17T04:09:51;8.68;;;7.90;;
17606;SDS011;69222;52.242;20.980;2023-08-17T04:12:19;8.85;;;7.80;;
17606;SDS011;69222;52.242;20.980;2023-08-17T04:14:47;8.77;;;7.88;;
17606;SDS011;69222;52.242;20.980;2023-08-17T04:17:15;8.48;;;7.65;;
17606;SDS011;69222;52.242;20.980;2023-08-17T04:19:43;8.80;;;8.00;;
17606;SDS011;69222;52.242;20.980;2023-08-17T04:22:11;9.77;;;7.43;;
17606;SDS011;69222;52.242;20.980;2023-08-17T04:24:39;11.95;;;8.05;;
17606;SDS011;69222;52.242;20.980;2023-08-17T04:27:08;9.55;;;8.55;;
17606;SDS011;69222;52.242;20.980;2023-08-17T04:29:37;8.90;;;8.00;;
17606;SDS011;69222;52.242;20.980;2023-08-17T04:32:06;8.18;;;7.38;;
17606;SDS011;69222;52.242;20.980;2023-08-17T04:34:34;9.88;;;8.20;;
17606;SDS011;69222;52.242;20.980;2023-08-17T04:37:02;9.25;;;8.32;;
17606;SDS011;69222;52.242;20.980;2023-08-17T04:39:30;8.40;;;7.55;;
17606;SDS011;69222;52.242;20.980;2023-08-17T04:41:58;11.02;;;7.25;;
17606;SDS011;69222;52.242;20.980;2023-08-17T04:44:28;8.48;;;7.22;;
17606;SDS011;69222;52.242;20.980;2023-08-17T04:46:56;8.88;;;7.47;;
17606;SDS011;69222;52.242;20.980;2023-08-17T04:49:24;8.60;;;7.80;;
17606;SDS011;69222;52.242;20.980;2023-08-17T04:51:52;8.65;;;6.72;;
17606;SDS011;69222;52.242;20.980;2023-08-17T04:54:20;11.38;;;7.18;;
17606;SDS011;69222;52.242;20.980;2023-08-17T04:56:48;7.80;;;7.10;;
17606;SDS011;69222;52.242;20.980;2023-08-17T04:59:16;10.40;;;7.68;;
17606;SDS011;69222;52.242;20.980;2023-08-17T05:01:45;9.07;;;7.13;;
17606;SDS011;69222;52.242;20.980;2023-08-17T05:04:13;7.85;;;7.00;;
17606;SDS011;69222;52.242;20.980;2023-08-17T05:06:41;9.20;;;7.30;;
17606;SDS011;69222;52.242;20.980;2023-08-17T05:09:09;9.48;;;6.93;;
17606;SDS011;69222;52.242;20.980;2023-08-17T05:11:37;9.23;;;7.07;;
17606;SDS011;69222;52.242;20.980;2023-08-17T05:14:05;10.43;;;7.10;;
17606;SDS011;69222;52.242;20.980;2023-08-17T05:16:33;9.57;;;6.68;;
17606;SDS011;69222;52.242;20.980;2023-08-17T05:19:03;7.75;;;6.65;;
17606;SDS011;69222;52.242;20.980;2023-08-17T05:21:31;9.73;;;6.78;;
17606;SDS011;69222;52.242;20.980;2023-08-17T05:23:59;13.10;;;7.97;;
17606;SDS011;69222;52.242;20.980;2023-08-17T05:26:27;7.68;;;6.90;;
17606;SDS011;69222;52.242;20.980;2023-08-17T05:28:55;7.57;;;6.82;;
17606;SDS011;69222;52.242;20.980;2023-08-17T05:31:23;12.05;;;6.53;;
17606;SDS011;69222;52.242;20.980;2023-08-17T05:33:51;7.38;;;6.55;;
17606;SDS011;69222;52.242;20.980;2023-08-17T05:36:20;10.77;;;6.38;;
17606;SDS011;69222;52.242;20.980;2023-08-17T05:38:48;7.35;;;5.80;;
17606;SDS011;69222;52.242;20.980;2023-08-17T05:41:16;14.88;;;11.85;;
17606;SDS011;69222;52.242;20.980;2023-08-17T05:43:44;10.02;;;6.40;;
17606;SDS011;69222;52.242;20.980;2023-08-17T05:46:12;7.88;;;6.00;;
17606;SDS011;69222;52.242;20.980;2023-08-17T05:48:40;9.43;;;6.18;;
17606;SDS011;69222;52.242;20.980;2023-08-17T05:51:08;9.25;;;6.50;;
17606;SDS011;69222;52.242;20.980;2023-08-17T05:53:41;9.32;;;6.38;;
17606;SDS011;69222;52.242;20.980;2023-08-17T05:56:09;8.70;;;5.63;;
17606;SDS011;69222;52.242;20.980;2023-08-17T05:58:37;9.10;;;6.10;;
17606;SDS011;69222;52.242;20.980;2023-08-17T06:01:07;9.23;;;5.88;;
17606;SDS011;69222;52.242;20.980;2023-08-17T06:03:36;12.90;;;6.18;;
17606;SDS011;69222;52.242;20.980;2023-08-17T06:06:04;7.63;;;5.47;;
17606;SDS011;69222;52.242;20.980;2023-08-17T06:08:33;8.93;;;6.60;;
17606;SDS011;69222;52.242;20.980;2023-08-17T06:11:02;12.32;;;6.00;;
17606;SDS011;69222;52.242;20.980;2023-08-17T06:13:30;8.95;;;5.80;;
17606;SDS011;69222;52.242;20.980;2023-08-17T06:15:58;10.85;;;5.55;;
17606;SDS011;69222;52.242;20.980;2023-08-17T06:18:26;8.95;;;5.47;;
17606;SDS011;69222;52.242;20.980;2023-08-17T06:20:55;7.55;;;5.43;;
17606;SDS011;69222;52.242;20.980;2023-08-17T06:23:23;8.60;;;5.47;;
17606;SDS011;69222;52.242;20.980;2023-08-17T06:25:55;8.50;;;5.72;;
17606;SDS011;69222;52.242;20.980;2023-08-17T06:28:25;7.88;;;6.00;;
17606;SDS011;69222;52.242;20.980;2023-08-17T06:30:55;10.50;;;5.55;;
17606;SDS011;69222;52.242;20.980;2023-08-17T06:33:23;14.38;;;5.45;;
17606;SDS011;69222;52.242;20.980;2023-08-17T06:35:52;6.80;;;5.65;;
17606;SDS011;69222;52.242;20.980;2023-08-17T06:38:20;11.00;;;6.13;;
17606;SDS011;69222;52.242;20.980;2023-08-17T06:40:48;10.27;;;5.70;;
17606;SDS011;69222;52.242;20.980;2023-08-17T06:43:16;8.85;;;5.65;;
17606;SDS011;69222;52.242;20.980;2023-08-17T06:45:46;7.25;;;5.25;;
17606;SDS011;69222;52.242;20.980;2023-08-17T06:48:14;8.13;;;6.00;;
17606;SDS011;69222;52.242;20.980;2023-08-17T06:50:43;9.15;;;5.25;;
17606;SDS011;69222;52.242;20.980;2023-08-17T06:53:11;9.48;;;5.80;;
17606;SDS011;69222;52.242;20.980;2023-08-17T06:55:39;7.18;;;5.43;;
17606;SDS011;69222;52.242;20.980;2023-08-17T06:58:07;6.45;;;5.10;;
17606;SDS011;69222;52.242;20.980;2023-08-17T07:00:36;8.02;;;4.78;;
17606;SDS011;69222;52.242;20.980;2023-08-17T07:03:08;8.00;;;6.07;;
17606;SDS011;69222;52.242;20.980;2023-08-17T07:05:36;8.52;;;5.97;;
17606;SDS011;69222;52.242;20.980;2023-08-17T07:08:06;9.18;;;5.10;;
17606;SDS011;69222;52.242;20.980;2023-08-17T07:10:34;7.20;;;5.25;;
17606;SDS011;69222;52.242;20.980;2023-08-17T07:13:03;7.90;;;5.45;;
17606;SDS011;69222;52.242;20.980;2023-08-17T07:15:31;8.57;;;5.80;;
17606;SDS011;69222;52.242;20.980;2023-08-17T07:17:59;6.95;;;5.78;;
17606;SDS011;69222;52.242;20.980;2023-08-17T07:20:29;8.18;;;6.43;;
17606;SDS011;69222;52.242;20.980;2023-08-17T07:22:58;10.10;;;5.47;;
17606;SDS011;69222;52.242;20.980;2023-08-17T07:25:26;7.30;;;5.80;;
17606;SDS011;69222;52.242;20.980;2023-08-17T07:27:54;7.05;;;5.45;;
17606;SDS011;69222;52.242;20.980;2023-08-17T07:30:22;8.75;;;5.90;;
17606;SDS011;69222;52.242;20.980;2023-08-17T07:32:51;6.20;;;5.60;;
17606;SDS011;69222;52.242;20.980;2023-08-17T07:35:19;8.30;;;5.65;;
17606;SDS011;69222;52.242;20.980;2023-08-17T07:37:49;13.48;;;6.18;;
17606;SDS011;69222;52.242;20.980;2023-08-17T07:40:32;10.20;;;5.78;;
17606;SDS011;69222;52.242;20.980;2023-08-17T07:43:00;8.13;;;5.72;;
17606;SDS011;69222;52.242;20.980;2023-08-17T07:45:29;8.38;;;6.07;;
17606;SDS011;69222;52.242;20.980;2023-08-17T07:47:57;6.93;;;6.22;;
17606;SDS011;69222;52.242;20.980;2023-08-17T07:50:25;16.95;;;6.13;;
17606;SDS011;69222;52.242;20.980;2023-08-17T07:52:55;8.57;;;5.57;;
17606;SDS011;69222;52.242;20.980;2023-08-17T07:55:23;7.50;;;6.32;;
17606;SDS011;69222;52.242;20.980;2023-08-17T07:57:51;11.82;;;5.90;;
17606;SDS011;69222;52.242;20.980;2023-08-17T08:00:19;7.63;;;6.30;;
17606;SDS011;69222;52.242;20.980;2023-08-17T08:02:47;7.82;;;5.90;;
17606;SDS011;69222;52.242;20.980;2023-08-17T08:05:16;12.50;;;6.25;;
17606;SDS011;69222;52.242;20.980;2023-08-17T08:07:44;8.35;;;6.25;;
17606;SDS011;69222;52.242;20.980;2023-08-17T08:10:13;8.90;;;6.72;;
17606;SDS011;69222;52.242;20.980;2023-08-17T08:12:41;8.02;;;6.47;;
17606;SDS011;69222;52.242;20.980;2023-08-17T08:15:10;8.10;;;6.28;;
17606;SDS011;69222;52.242;20.980;2023-08-17T08:17:38;9.40;;;6.43;;
17606;SDS011;69222;52.242;20.980;2023-08-17T08:20:07;9.40;;;6.35;;
17606;SDS011;69222;52.242;20.980;2023-08-17T08:22:35;6.80;;;6.13;;
17606;SDS011;69222;52.242;20.980;2023-08-17T08:25:04;12.00;;;6.35;;
17606;SDS011;69222;52.242;20.980;2023-08-17T08:27:36;8.30;;;7.00;;
17606;SDS011;69222;52.242;20.980;2023-08-17T08:30:05;10.68;;;7.28;;
17606;SDS011;69222;52.242;20.980;2023-08-17T08:32:34;10.55;;;6.85;;
17606;SDS011;69222;52.242;20.980;2023-08-17T08:35:03;14.15;;;6.93;;
17606;SDS011;69222;52.242;20.980;2023-08-17T08:37:31;16.38;;;6.20;;
17606;SDS011;69222;52.242;20.980;2023-08-17T08:39:59;12.07;;;6.22;;
17606;SDS011;69222;52.242;20.980;2023-08-17T08:42:28;7.88;;;6.38;;
17606;SDS011;69222;52.242;20.980;2023-08-17T08:44:57;11.18;;;6.28;;
17606;SDS011;69222;52.242;20.980;2023-08-17T08:47:26;9.48;;;6.10;;
17606;SDS011;69222;52.242;20.980;2023-08-17T08:49:58;15.77;;;6.60;;
17606;SDS011;69222;52.242;20.980;2023-08-17T08:52:32;6.88;;;5.90;;
17606;SDS011;69222;52.242;20.980;2023-08-17T08:55:08;10.20;;;6.05;;
17606;SDS011;69222;52.242;20.980;2023-08-17T08:57:39;7.72;;;6.25;;
17606;SDS011;69222;52.242;20.980;2023-08-17T09:00:11;7.60;;;6.20;;
17606;SDS011;69222;52.242;20.980;2023-08-17T09:02:40;6.82;;;6.05;;
17606;SDS011;69222;52.242;20.980;2023-08-17T09:05:10;7.63;;;6.32;;
17606;SDS011;69222;52.242;20.980;2023-08-17T09:07:39;7.97;;;6.22;;
17606;SDS011;69222;52.242;20.980;2023-08-17T09:10:09;7.70;;;5.72;;
17606;SDS011;69222;52.242;20.980;2023-08-17T09:12:38;10.13;;;6.28;;
17606;SDS011;69222;52.242;20.980;2023-08-17T09:15:07;7.05;;;6.18;;
17606;SDS011;69222;52.242;20.980;2023-08-17T09:17:37;7.00;;;6.05;;
17606;SDS011;69222;52.242;20.980;2023-08-17T09:20:06;6.97;;;5.95;;
17606;SDS011;69222;52.242;20.980;2023-08-17T09:22:39;7.43;;;5.97;;
17606;SDS011;69222;52.242;20.980;2023-08-17T09:25:08;8.88;;;5.90;;
17606;SDS011;69222;52.242;20.980;2023-08-17T09:27:37;9.57;;;6.03;;
17606;SDS011;69222;52.242;20.980;2023-08-17T09:30:06;7.03;;;6.15;;
17606;SDS011;69222;52.242;20.980;2023-08-17T09:32:37;9.07;;;5.53;;
17606;SDS011;69222;52.242;20.980;2023-08-17T09:35:06;10.27;;;5.88;;
17606;SDS011;69222;52.242;20.980;2023-08-17T09:37:34;8.35;;;6.25;;
17606;SDS011;69222;52.242;20.980;2023-08-17T09:40:02;8.35;;;5.63;;
17606;SDS011;69222;52.242;20.980;2023-08-17T09:42:34;6.45;;;5.88;;
17606;SDS011;69222;52.242;20.980;2023-08-17T09:45:02;8.68;;;6.22;;
17606;SDS011;69222;52.242;20.980;2023-08-17T09:47:31;7.47;;;5.32;;
17606;SDS011;69222;52.242;20.980;2023-08-17T09:50:00;9.07;;;5.97;;
17606;SDS011;69222;52.242;20.980;2023-08-17T09:52:28;6.50;;;5.82;;
17606;SDS011;69222;52.242;20.980;2023-08-17T09:54:56;7.10;;;5.80;;
17606;SDS011;69222;52.242;20.980;2023-08-17T09:57:34;6.47;;;5.47;;
17606;SDS011;69222;52.242;20.980;2023-08-17T10:00:03;6.72;;;5.40;;
17606;SDS011;69222;52.242;20.980;2023-08-17T10:02:33;7.57;;;5.40;;
17606;SDS011;69222;52.242;20.980;2023-08-17T10:05:03;7.53;;;5.00;;
17606;SDS011;69222;52.242;20.980;2023-08-17T10:07:37;6.05;;;4.68;;
17606;SDS011;69222;52.242;20.980;2023-08-17T10:10:08;5.55;;;5.05;;
17606;SDS011;69222;52.242;20.980;2023-08-17T10:12:42;7.13;;;5.00;;
17606;SDS011;69222;52.242;20.980;2023-08-17T10:15:13;8.43;;;4.57;;
17606;SDS011;69222;52.242;20.980;2023-08-17T10:17:47;4.68;;;4.00;;
17606;SDS011;69222;52.242;20.980;2023-08-17T10:20:24;5.55;;;4.30;;
17606;SDS011;69222;52.242;20.980;2023-08-17T10:22:54;9.57;;;4.78;;
17606;SDS011;69222;52.242;20.980;2023-08-17T10:25:29;6.18;;;4.22;;
17606;SDS011;69222;52.242;20.980;2023-08-17T10:27:58;7.57;;;4.40;;
17606;SDS011;69222;52.242;20.980;2023-08-17T10:30:30;10.05;;;4.13;;
17606;SDS011;69222;52.242;20.980;2023-08-17T10:32:58;7.75;;;5.20;;
17606;SDS011;69222;52.242;20.980;2023-08-17T10:35:28;6.15;;;4.90;;
17606;SDS011;69222;52.242;20.980;2023-08-17T10:37:57;4.85;;;4.20;;
17606;SDS011;69222;52.242;20.980;2023-08-17T10:40:26;7.30;;;3.78;;
17606;SDS011;69222;52.242;20.980;2023-08-17T10:42:55;7.72;;;4.80;;
17606;SDS011;69222;52.242;20.980;2023-08-17T10:45:27;6.88;;;4.30;;
17606;SDS011;69222;52.242;20.980;2023-08-17T10:51:04;5.28;;;3.55;;
17606;SDS011;69222;52.242;20.980;2023-08-17T10:53:36;4.38;;;3.10;;
17606;SDS011;69222;52.242;20.980;2023-08-17T10:56:12;4.43;;;3.33;;
17606;SDS011;69222;52.242;20.980;2023-08-17T10:58:44;6.82;;;2.72;;
17606;SDS011;69222;52.242;20.980;2023-08-17T11:01:12;4.50;;;2.90;;
17606;SDS011;69222;52.242;20.980;2023-08-17T11:03:47;4.43;;;3.40;;
17606;SDS011;69222;52.242;20.980;2023-08-17T11:06:44;3.85;;;3.40;;
17606;SDS011;69222;52.242;20.980;2023-08-17T11:09:14;6.30;;;3.33;;
17606;SDS011;69222;52.242;20.980;2023-08-17T11:11:49;4.60;;;3.00;;
17606;SDS011;69222;52.242;20.980;2023-08-17T11:14:20;4.35;;;2.85;;
17606;SDS011;69222;52.242;20.980;2023-08-17T11:16:48;4.47;;;3.03;;
17606;SDS011;69222;52.242;20.980;2023-08-17T11:19:17;4.93;;;2.85;;
17606;SDS011;69222;52.242;20.980;2023-08-17T11:21:47;4.18;;;2.72;;
17606;SDS011;69222;52.242;20.980;2023-08-17T11:24:15;4.40;;;2.70;;
17606;SDS011;69222;52.242;20.980;2023-08-17T11:26:43;8.35;;;2.83;;
17606;SDS011;69222;52.242;20.980;2023-08-17T11:29:11;8.60;;;3.25;;
17606;SDS011;69222;52.242;20.980;2023-08-17T11:31:39;5.45;;;2.85;;
17606;SDS011;69222;52.242;20.980;2023-08-17T11:34:08;3.42;;;2.70;;
17606;SDS011;69222;52.242;20.980;2023-08-17T11:36:36;3.50;;;2.80;;
17606;SDS011;69222;52.242;20.980;2023-08-17T11:39:06;4.20;;;2.65;;
17606;SDS011;69222;52.242;20.980;2023-08-17T11:41:36;6.18;;;2.78;;
17606;SDS011;69222;52.242;20.980;2023-08-17T11:44:04;2.65;;;1.98;;
17606;SDS011;69222;52.242;20.980;2023-08-17T11:46:33;5.35;;;2.65;;
17606;SDS011;69222;52.242;20.980;2023-08-17T11:49:01;4.22;;;2.58;;
17606;SDS011;69222;52.242;20.980;2023-08-17T11:51:30;4.25;;;2.40;;
17606;SDS011;69222;52.242;20.980;2023-08-17T11:53:58;3.00;;;2.40;;
17606;SDS011;69222;52.242;20.980;2023-08-17T11:56:31;3.20;;;2.35;;
17606;SDS011;69222;52.242;20.980;2023-08-17T11:58:59;7.60;;;2.97;;
17606;SDS011;69222;52.242;20.980;2023-08-17T12:01:36;5.20;;;2.95;;
17606;SDS011;69222;52.242;20.980;2023-08-17T12:04:05;3.08;;;2.72;;
17606;SDS011;69222;52.242;20.980;2023-08-17T12:06:33;6.50;;;2.67;;
17606;SDS011;69222;52.242;20.980;2023-08-17T12:09:03;2.70;;;2.50;;
17606;SDS011;69222;52.242;20.980;2023-08-17T12:11:33;4.18;;;2.60;;
17606;SDS011;69222;52.242;20.980;2023-08-17T12:14:08;2.28;;;2.00;;
17606;SDS011;69222;52.242;20.980;2023-08-17T12:16:44;3.80;;;2.67;;
17606;SDS011;69222;52.242;20.980;2023-08-17T12:19:15;3.05;;;2.38;;
17606;SDS011;69222;52.242;20.980;2023-08-17T12:21:42;4.18;;;2.47;;
17606;SDS011;69222;52.242;20.980;2023-08-17T12:24:10;3.42;;;2.30;;
17606;SDS011;69222;52.242;20.980;2023-08-17T12:26:42;7.80;;;3.10;;
17606;SDS011;69222;52.242;20.980;2023-08-17T12:29:10;3.97;;;2.13;;
17606;SDS011;69222;52.242;20.980;2023-08-17T12:31:38;3.67;;;2.60;;
17606;SDS011;69222;52.242;20.980;2023-08-17T12:34:07;5.50;;;2.60;;
17606;SDS011;69222;52.242;20.980;2023-08-17T12:36:35;3.45;;;2.50;;
17606;SDS011;69222;52.242;20.980;2023-08-17T12:39:04;2.90;;;2.70;;
17606;SDS011;69222;52.242;20.980;2023-08-17T12:41:32;3.10;;;2.45;;
17606;SDS011;69222;52.242;20.980;2023-08-17T12:44:02;2.47;;;2.28;;
17606;SDS011;69222;52.242;20.980;2023-08-17T12:46:30;4.70;;;2.50;;
17606;SDS011;69222;52.242;20.980;2023-08-17T12:48:59;2.75;;;2.33;;
17606;SDS011;69222;52.242;20.980;2023-08-17T12:51:27;5.68;;;2.38;;
17606;SDS011;69222;52.242;20.980;2023-08-17T12:53:55;2.72;;;2.50;;
17606;SDS011;69222;52.242;20.980;2023-08-17T12:56:23;5.75;;;2.85;;
17606;SDS011;69222;52.242;20.980;2023-08-17T12:58:51;4.28;;;2.70;;
17606;SDS011;69222;52.242;20.980;2023-08-17T13:01:20;4.50;;;2.80;;
17606;SDS011;69222;52.242;20.980;2023-08-17T13:03:49;6.72;;;3.08;;
17606;SDS011;69222;52.242;20.980;2023-08-17T13:06:17;6.68;;;2.60;;
17606;SDS011;69222;52.242;20.980;2023-08-17T13:08:45;3.90;;;2.85;;
17606;SDS011;69222;52.242;20.980;2023-08-17T13:11:13;4.70;;;2.55;;
17606;SDS011;69222;52.242;20.980;2023-08-17T13:13:41;5.40;;;2.50;;
17606;SDS011;69222;52.242;20.980;2023-08-17T13:16:09;3.22;;;2.65;;
17606;SDS011;69222;52.242;20.980;2023-08-17T13:18:39;3.85;;;2.55;;
17606;SDS011;69222;52.242;20.980;2023-08-17T13:21:07;2.17;;;1.98;;
17606;SDS011;69222;52.242;20.980;2023-08-17T13:23:38;4.55;;;2.58;;
17606;SDS011;69222;52.242;20.980;2023-08-17T13:26:06;2.72;;;2.20;;
17606;SDS011;69222;52.242;20.980;2023-08-17T13:28:34;3.25;;;2.33;;
17606;SDS011;69222;52.242;20.980;2023-08-17T13:31:02;4.28;;;2.80;;
17606;SDS011;69222;52.242;20.980;2023-08-17T13:33:51;3.05;;;2.40;;
17606;SDS011;69222;52.242;20.980;2023-08-17T13:36:19;2.67;;;2.45;;
17606;SDS011;69222;52.242;20.980;2023-08-17T13:38:47;2.72;;;2.22;;
17606;SDS011;69222;52.242;20.980;2023-08-17T13:41:16;4.43;;;2.60;;
17606;SDS011;69222;52.242;20.980;2023-08-17T13:43:43;4.50;;;2.53;;
17606;SDS011;69222;52.242;20.980;2023-08-17T13:46:12;3.90;;;2.33;;
17606;SDS011;69222;52.242;20.980;2023-08-17T13:48:40;3.40;;;2.25;;
17606;SDS011;69222;52.242;20.980;2023-08-17T13:51:09;3.10;;;2.80;;
17606;SDS011;69222;52.242;20.980;2023-08-17T13:53:37;3.70;;;2.58;;
17606;SDS011;69222;52.242;20.980;2023-08-17T13:56:06;3.50;;;2.47;;
17606;SDS011;69222;52.242;20.980;2023-08-17T13:58:34;2.95;;;2.55;;
17606;SDS011;69222;52.242;20.980;2023-08-17T14:01:02;3.88;;;2.55;;
17606;SDS011;69222;52.242;20.980;2023-08-17T14:03:30;4.07;;;2.50;;
17606;SDS011;69222;52.242;20.980;2023-08-17T14:05:58;5.20;;;3.05;;
17606;SDS011;69222;52.242;20.980;2023-08-17T14:08:28;3.60;;;2.50;;
17606;SDS011;69222;52.242;20.980;2023-08-17T14:10:56;7.13;;;2.90;;
17606;SDS011;69222;52.242;20.980;2023-08-17T14:13:24;3.78;;;2.97;;
17606;SDS011;69222;52.242;20.980;2023-08-17T14:15:52;5.40;;;2.53;;
17606;SDS011;69222;52.242;20.980;2023-08-17T14:18:22;3.95;;;2.42;;
17606;SDS011;69222;52.242;20.980;2023-08-17T14:20:50;2.63;;;2.42;;
17606;SDS011;69222;52.242;20.980;2023-08-17T14:23:19;3.95;;;2.50;;
17606;SDS011;69222;52.242;20.980;2023-08-17T14:25:48;3.05;;;2.60;;
17606;SDS011;69222;52.242;20.980;2023-08-17T14:28:18;2.95;;;2.47;;
17606;SDS011;69222;52.242;20.980;2023-08-17T14:30:46;6.32;;;2.47;;
17606;SDS011;69222;52.242;20.980;2023-08-17T14:33:18;4.35;;;2.55;;
17606;SDS011;69222;52.242;20.980;2023-08-17T14:35:46;4.85;;;2.78;;
17606;SDS011;69222;52.242;20.980;2023-08-17T14:38:14;4.05;;;2.78;;
17606;SDS011;69222;52.242;20.980;2023-08-17T14:40:42;3.33;;;2.63;;
17606;SDS011;69222;52.242;20.980;2023-08-17T14:43:12;3.50;;;2.65;;
17606;SDS011;69222;52.242;20.980;2023-08-17T14:45:41;3.55;;;2.15;;